M/V Ave Maria — WDD5063 — position and weather

sailwx.info

Track history (hours):
 
Tides and Currents Weather Stations Pressure Air Temp Water Temp Dewpoint Dewpoint Depression Visibility Wind Speed Wind Dir Waves Ship Positions

M/V Ave Maria

Owner: Marquette Transportation Company Gulf-Inland, LLC, Jefferson, LA. More information available from US FCC via Universal Licensing System and Coast Guard Vessel Documentation Center.

Last reported at 2017-Nov-24 14:50 UTC. Time now 2017-Nov-24 16:43 UTC.
Position N 29°47' W 091°49'.

Length 23 m; draft 2.7 m.

Type: Towing. MMSI: 367126410.

Date/timePositionNaut miles runAvg speedWind from/ knotsBaromVisibWave heightAir tempDewpointWater temp
2017-Nov-24 14:50N 29°47' W 091°49'1 3.9
2017-Nov-24 14:30N 29°49' W 091°49'7 3.6
2017-Nov-24 12:24N 29°50' W 091°58'2 4.1
2017-Nov-24 12:00N 29°50' W 091°60'2 4.3
2017-Nov-24 11:30N 29°49' W 092°02'2 4.2
2017-Nov-24 11:00N 29°48' W 092°04'2 4.2
2017-Nov-24 10:30N 29°48' W 092°06'2 4.2
2017-Nov-24 10:00N 29°47' W 092°09'2 3.9
2017-Nov-24 09:30N 29°47' W 092°11'1 2.9
2017-Nov-24 09:00N 29°47' W 092°12'1 2.4
2017-Nov-24 08:30N 29°48' W 092°14'2 3.2
2017-Nov-24 08:00N 29°48' W 092°15'0 0.8
2017-Nov-24 07:30N 29°48' W 092°16'1 2.4
2017-Nov-24 07:00N 29°49' W 092°17'2 3.2
2017-Nov-24 06:30N 29°50' W 092°18'2 3.8
2017-Nov-24 06:00N 29°51' W 092°20'2 3.2
2017-Nov-24 05:17N 29°52' W 092°22'2 3.5
2017-Nov-24 04:46N 29°53' W 092°24'33 3.5
2017-Nov-23 19:20N 29°56' W 093°03'1 3.7
2017-Nov-23 19:00N 29°56' W 093°04'2 3.6
2017-Nov-23 18:30N 29°56' W 093°06'2 3.8
2017-Nov-23 18:00N 29°56' W 093°08'2 3.4
2017-Nov-23 17:30N 29°57' W 093°10'2 3.7
2017-Nov-23 17:00N 29°58' W 093°11'2 3.3
2017-Nov-23 16:30N 29°59' W 093°13'2 3.3
2017-Nov-23 16:00N 30°01' W 093°14'1 2.7
2017-Nov-23 15:30N 30°02' W 093°15'1 2.5
2017-Nov-23 15:00N 30°03' W 093°16'2 3.1
2017-Nov-23 14:30N 30°04' W 093°16'2 3.2
2017-Nov-23 14:00N 30°05' W 093°18'1 1.6
2017-Nov-23 13:30N 30°06' W 093°18'0 0.3
2017-Nov-23 13:00N 30°06' W 093°18'0 0.0
2017-Nov-23 12:30N 30°06' W 093°18'0 0.0
2017-Nov-23 12:00N 30°06' W 093°18'0 0.0
2017-Nov-23 11:30N 30°06' W 093°18'0 0.0
2017-Nov-23 11:00N 30°06' W 093°18'0 0.1
2017-Nov-23 10:30N 30°06' W 093°18'0 0.0
2017-Nov-23 10:00N 30°06' W 093°18'0 0.0
2017-Nov-23 09:30N 30°06' W 093°18'0 0.0
2017-Nov-23 09:00N 30°06' W 093°18'0 0.0
2017-Nov-23 08:30N 30°06' W 093°18'0 0.0
2017-Nov-23 08:00N 30°06' W 093°18'0 0.1
2017-Nov-23 07:30N 30°06' W 093°18'0 0.1
2017-Nov-23 07:00N 30°06' W 093°18'0 0.0
2017-Nov-23 06:30N 30°06' W 093°18'0 0.0
2017-Nov-23 06:00N 30°06' W 093°18'0 0.0
2017-Nov-23 05:30N 30°06' W 093°18'0 0.0
2017-Nov-23 05:00N 30°06' W 093°18'0 0.0
2017-Nov-23 04:30N 30°06' W 093°18'0 0.0
2017-Nov-23 04:00N 30°06' W 093°18'0 0.1
2017-Nov-23 03:30N 30°06' W 093°18'0 0.1
2017-Nov-23 03:00N 30°06' W 093°18'0 0.0
2017-Nov-23 02:30N 30°06' W 093°18'0 0.0
2017-Nov-23 02:00N 30°06' W 093°18'0 0.0
2017-Nov-23 01:30N 30°06' W 093°18'0 0.0
2017-Nov-23 01:00N 30°06' W 093°18'0 0.4
2017-Nov-23 00:30N 30°06' W 093°18'2 3.5
2017-Nov-23 00:00N 30°05' W 093°20'2 3.8
2017-Nov-22 23:30N 30°04' W 093°22'0 0.7
2017-Nov-22 23:00N 30°04' W 093°22'0 0.0
2017-Nov-22 22:30N 30°04' W 093°22'0 0.0
2017-Nov-22 22:00N 30°04' W 093°22'0 0.0
2017-Nov-22 21:30N 30°04' W 093°22'0 0.0
2017-Nov-22 21:00N 30°04' W 093°22'0 0.0
2017-Nov-22 20:30N 30°04' W 093°22'0 0.0
2017-Nov-22 20:00N 30°04' W 093°22'0 0.1
2017-Nov-22 19:30N 30°04' W 093°22'  
2017-Nov-19 21:27N 30°04' W 093°32'2 4.3
2017-Nov-19 20:56N 30°04' W 093°29'2 4.3
2017-Nov-19 20:30N 30°04' W 093°27'2 4.3
2017-Nov-19 20:00N 30°04' W 093°24'2 4.2
2017-Nov-19 19:30N 30°04' W 093°22'2 3.6
2017-Nov-19 19:00N 30°05' W 093°20'2 4.4
2017-Nov-19 18:30N 30°06' W 093°19'1 2.6
2017-Nov-19 18:00N 30°05' W 093°18'1 1.9
2017-Nov-19 17:30N 30°05' W 093°17'1 1.1
2017-Nov-19 17:00N 30°04' W 093°16'0 0.0
2017-Nov-19 16:30N 30°04' W 093°16'0 0.0
2017-Nov-19 16:00N 30°04' W 093°16'0 0.0
2017-Nov-19 15:30N 30°04' W 093°16'0 0.0
2017-Nov-19 15:00N 30°04' W 093°16'0 0.0
2017-Nov-19 14:30N 30°04' W 093°16'0 0.0
2017-Nov-19 14:00N 30°04' W 093°16'0 0.1
2017-Nov-19 13:30N 30°04' W 093°16'0 0.0
2017-Nov-19 13:00N 30°04' W 093°16'0 0.1
2017-Nov-19 12:30N 30°04' W 093°16'1 2.3
2017-Nov-19 12:00N 30°03' W 093°16'2 4.0
2017-Nov-19 11:30N 30°02' W 093°14'2 4.3
2017-Nov-19 11:00N 29°60' W 093°13'2 4.3
2017-Nov-19 10:30N 29°58' W 093°11'2 4.3
2017-Nov-19 10:00N 29°56' W 093°10'2 4.1
2017-Nov-19 09:30N 29°56' W 093°07'2 4.3
2017-Nov-19 09:00N 29°56' W 093°05'38 4.2
2017-Nov-19 00:00N 29°51' W 092°22'2 4.6
2017-Nov-18 23:30N 29°50' W 092°19'2 4.0
2017-Nov-18 23:00N 29°49' W 092°17'2 3.1
2017-Nov-18 22:30N 29°48' W 092°16'2 4.6
2017-Nov-18 22:00N 29°48' W 092°13'2 4.1
2017-Nov-18 21:30N 29°47' W 092°11'2 4.2
2017-Nov-18 21:00N 29°47' W 092°09'2 4.3
2017-Nov-18 20:30N 29°48' W 092°06'2 4.7
2017-Nov-18 20:00N 29°49' W 092°04'2 4.6
2017-Nov-18 19:30N 29°49' W 092°01'2 4.6
2017-Nov-18 19:00N 29°50' W 091°59'0 0.0
2017-Nov-18 03:07N 29°50' W 091°59'0 4.1
2017-Nov-18 03:00N 29°50' W 091°59'2 3.8
2017-Nov-18 02:30N 29°49' W 092°01'2 3.9
2017-Nov-18 02:00N 29°49' W 092°03'2 4.1
2017-Nov-18 01:30N 29°48' W 092°06'2 4.3
2017-Nov-18 01:00N 29°47' W 092°08'2 3.8
2017-Nov-18 00:30N 29°47' W 092°10'2 3.5
2017-Nov-18 00:00N 29°47' W 092°12'1 1.9
2017-Nov-17 23:30N 29°47' W 092°13'2 3.6
2017-Nov-17 23:00N 29°48' W 092°15'2 3.7
2017-Nov-17 22:30N 29°49' W 092°17'2 3.3
2017-Nov-17 22:00N 29°50' W 092°18'2 3.6
2017-Nov-17 21:30N 29°51' W 092°20'37 3.5
2017-Nov-17 10:45N 29°56' W 093°03'2 3.7
2017-Nov-17 10:20N 29°56' W 093°04'1 3.6
2017-Nov-17 09:59N 29°56' W 093°06'2 3.5
2017-Nov-17 09:29N 29°56' W 093°08'2 3.6
2017-Nov-17 09:00N 29°56' W 093°10'2 3.7
2017-Nov-17 08:30N 29°58' W 093°11'2 3.6
2017-Nov-17 08:00N 29°59' W 093°12'2 3.4
2017-Nov-17 07:30N 30°00' W 093°14'2 3.2
2017-Nov-17 07:00N 30°02' W 093°15'2 3.2
2017-Nov-17 06:30N 30°03' W 093°16'2 3.5
2017-Nov-17 06:00N 30°05' W 093°17'1 2.3
2017-Nov-17 05:30N 30°05' W 093°18'1 2.1
2017-Nov-17 05:00N 30°06' W 093°18'2 3.7
2017-Nov-17 04:30N 30°05' W 093°20'2 3.3
2017-Nov-17 04:00N 30°04' W 093°21'1 1.5
2017-Nov-17 03:30N 30°04' W 093°22'0 0.3
2017-Nov-17 03:00N 30°04' W 093°22'0 0.0
2017-Nov-17 02:30N 30°04' W 093°22'0 0.0
2017-Nov-17 02:00N 30°04' W 093°22'0 0.0
2017-Nov-17 01:30N 30°04' W 093°22'0 0.3
2017-Nov-17 01:00N 30°04' W 093°22'2 3.5
2017-Nov-17 00:30N 30°04' W 093°24'2 3.5
2017-Nov-17 00:00N 30°04' W 093°26'2 3.7
2017-Nov-16 23:30N 30°04' W 093°29'2 3.7
2017-Nov-16 23:00N 30°04' W 093°31'2 3.3
2017-Nov-16 22:30N 30°04' W 093°33'1 2.3
2017-Nov-16 22:00N 30°04' W 093°34'2 4.0
2017-Nov-16 21:30N 30°04' W 093°36'2 4.1
2017-Nov-16 21:00N 30°04' W 093°39'2 4.2
2017-Nov-16 20:30N 30°04' W 093°41'21 3.3
2017-Nov-16 14:02N 29°49' W 093°59'0 0.0
2017-Nov-16 13:59N 29°49' W 093°59'1 2.1
2017-Nov-16 13:30N 29°48' W 094°00'2 4.3
2017-Nov-16 13:00N 29°47' W 094°02'2 4.1
2017-Nov-16 12:30N 29°45' W 094°04'2 3.9
2017-Nov-16 12:00N 29°44' W 094°05'2 3.8
2017-Nov-16 11:30N 29°43' W 094°07'7 1.6
2017-Nov-16 07:14N 29°40' W 094°14'0 0.4
2017-Nov-16 06:54N 29°40' W 094°14'35 2.9
2017-Nov-15 18:54N 29°29' W 094°52'2 4.8
2017-Nov-15 18:27N 29°31' W 094°53'2 4.8
2017-Nov-15 18:00N 29°33' W 094°54'2 4.8
2017-Nov-15 17:30N 29°35' W 094°56'2 4.7
2017-Nov-15 17:00N 29°37' W 094°57'2 4.9
2017-Nov-15 16:30N 29°39' W 094°58'3 5.2
2017-Nov-15 16:00N 29°41' W 094°59'2 4.4
2017-Nov-15 15:30N 29°43' W 095°01'2 4.2
2017-Nov-15 15:00N 29°44' W 095°03'2 4.8
2017-Nov-15 14:29N 29°46' W 095°05'1 0.6
2017-Nov-15 12:43N 29°46' W 095°06'0 0.0
2017-Nov-15 12:30N 29°46' W 095°06'0 0.0
2017-Nov-15 11:52N 29°46' W 095°06'0 0.4
2017-Nov-15 11:27N 29°46' W 095°06'0 0.0
2017-Nov-15 10:38N 29°46' W 095°06'0 0.0
2017-Nov-15 10:12N 29°46' W 095°06'1 3.1
2017-Nov-15 09:56N 29°46' W 095°05'1 1.7
2017-Nov-15 09:30N 29°46' W 095°04'4 7.0
2017-Nov-15 08:58N 29°43' W 095°01'3 6.9
2017-Nov-15 08:30N 29°41' W 094°59'4 7.5
2017-Nov-15 08:00N 29°37' W 094°57'4 7.6
2017-Nov-15 07:30N 29°34' W 094°55'70 5.1
2017-Nov-14 17:48N 30°03' W 093°42'9 6.9
2017-Nov-14 16:34N 30°04' W 093°32'1 6.6
2017-Nov-14 16:26N 30°04' W 093°31'3 6.7
2017-Nov-14 16:00N 30°04' W 093°28'3 6.6
2017-Nov-14 15:30N 30°04' W 093°24'3 5.3
2017-Nov-14 15:00N 30°04' W 093°21'  
Track history (hours):
 
Tides and Currents Weather Stations Pressure Air Temp Water Temp Dewpoint Dewpoint Depression Visibility Wind Speed Wind Dir Waves Ship Positions

M/V Ave Maria

Owner: Marquette Transportation Company Gulf-Inland, LLC, Jefferson, LA. More information available from US FCC via Universal Licensing System and Coast Guard Vessel Documentation Center.

Last reported at 2017-Nov-24 14:50 UTC. Time now 2017-Nov-24 16:43 UTC.
Position N 29°47' W 091°49'.

Length 23 m; draft 2.7 m.

Type: Towing. MMSI: 367126410.

Date/timePositionNaut miles runAvg speedWind from/ knotsBaromVisibWave heightAir tempDewpointWater temp
2017-Nov-24 14:50N 29°47' W 091°49'1 3.9
2017-Nov-24 14:30N 29°49' W 091°49'7 3.6
2017-Nov-24 12:24N 29°50' W 091°58'2 4.1
2017-Nov-24 12:00N 29°50' W 091°60'2 4.3
2017-Nov-24 11:30N 29°49' W 092°02'2 4.2
2017-Nov-24 11:00N 29°48' W 092°04'2 4.2
2017-Nov-24 10:30N 29°48' W 092°06'2 4.2
2017-Nov-24 10:00N 29°47' W 092°09'2 3.9
2017-Nov-24 09:30N 29°47' W 092°11'1 2.9
2017-Nov-24 09:00N 29°47' W 092°12'1 2.4
2017-Nov-24 08:30N 29°48' W 092°14'2 3.2
2017-Nov-24 08:00N 29°48' W 092°15'0 0.8
2017-Nov-24 07:30N 29°48' W 092°16'1 2.4
2017-Nov-24 07:00N 29°49' W 092°17'2 3.2
2017-Nov-24 06:30N 29°50' W 092°18'2 3.8
2017-Nov-24 06:00N 29°51' W 092°20'2 3.2
2017-Nov-24 05:17N 29°52' W 092°22'2 3.5
2017-Nov-24 04:46N 29°53' W 092°24'33 3.5
2017-Nov-23 19:20N 29°56' W 093°03'1 3.7
2017-Nov-23 19:00N 29°56' W 093°04'2 3.6
2017-Nov-23 18:30N 29°56' W 093°06'2 3.8
2017-Nov-23 18:00N 29°56' W 093°08'2 3.4
2017-Nov-23 17:30N 29°57' W 093°10'2 3.7
2017-Nov-23 17:00N 29°58' W 093°11'2 3.3
2017-Nov-23 16:30N 29°59' W 093°13'2 3.3
2017-Nov-23 16:00N 30°01' W 093°14'1 2.7
2017-Nov-23 15:30N 30°02' W 093°15'1 2.5
2017-Nov-23 15:00N 30°03' W 093°16'2 3.1
2017-Nov-23 14:30N 30°04' W 093°16'2 3.2
2017-Nov-23 14:00N 30°05' W 093°18'1 1.6
2017-Nov-23 13:30N 30°06' W 093°18'0 0.3
2017-Nov-23 13:00N 30°06' W 093°18'0 0.0
2017-Nov-23 12:30N 30°06' W 093°18'0 0.0
2017-Nov-23 12:00N 30°06' W 093°18'0 0.0
2017-Nov-23 11:30N 30°06' W 093°18'0 0.0
2017-Nov-23 11:00N 30°06' W 093°18'0 0.1
2017-Nov-23 10:30N 30°06' W 093°18'0 0.0
2017-Nov-23 10:00N 30°06' W 093°18'0 0.0
2017-Nov-23 09:30N 30°06' W 093°18'0 0.0
2017-Nov-23 09:00N 30°06' W 093°18'0 0.0
2017-Nov-23 08:30N 30°06' W 093°18'0 0.0
2017-Nov-23 08:00N 30°06' W 093°18'0 0.1
2017-Nov-23 07:30N 30°06' W 093°18'0 0.1
2017-Nov-23 07:00N 30°06' W 093°18'0 0.0
2017-Nov-23 06:30N 30°06' W 093°18'0 0.0
2017-Nov-23 06:00N 30°06' W 093°18'0 0.0
2017-Nov-23 05:30N 30°06' W 093°18'0 0.0
2017-Nov-23 05:00N 30°06' W 093°18'0 0.0
2017-Nov-23 04:30N 30°06' W 093°18'0 0.0
2017-Nov-23 04:00N 30°06' W 093°18'0 0.1
2017-Nov-23 03:30N 30°06' W 093°18'0 0.1
2017-Nov-23 03:00N 30°06' W 093°18'0 0.0
2017-Nov-23 02:30N 30°06' W 093°18'0 0.0
2017-Nov-23 02:00N 30°06' W 093°18'0 0.0
2017-Nov-23 01:30N 30°06' W 093°18'0 0.0
2017-Nov-23 01:00N 30°06' W 093°18'0 0.4
2017-Nov-23 00:30N 30°06' W 093°18'2 3.5
2017-Nov-23 00:00N 30°05' W 093°20'2 3.8
2017-Nov-22 23:30N 30°04' W 093°22'0 0.7
2017-Nov-22 23:00N 30°04' W 093°22'0 0.0
2017-Nov-22 22:30N 30°04' W 093°22'0 0.0
2017-Nov-22 22:00N 30°04' W 093°22'0 0.0
2017-Nov-22 21:30N 30°04' W 093°22'0 0.0
2017-Nov-22 21:00N 30°04' W 093°22'0 0.0
2017-Nov-22 20:30N 30°04' W 093°22'0 0.0
2017-Nov-22 20:00N 30°04' W 093°22'0 0.1
2017-Nov-22 19:30N 30°04' W 093°22'  
2017-Nov-19 21:27N 30°04' W 093°32'2 4.3
2017-Nov-19 20:56N 30°04' W 093°29'2 4.3
2017-Nov-19 20:30N 30°04' W 093°27'2 4.3
2017-Nov-19 20:00N 30°04' W 093°24'2 4.2
2017-Nov-19 19:30N 30°04' W 093°22'2 3.6
2017-Nov-19 19:00N 30°05' W 093°20'2 4.4
2017-Nov-19 18:30N 30°06' W 093°19'1 2.6
2017-Nov-19 18:00N 30°05' W 093°18'1 1.9
2017-Nov-19 17:30N 30°05' W 093°17'1 1.1
2017-Nov-19 17:00N 30°04' W 093°16'0 0.0
2017-Nov-19 16:30N 30°04' W 093°16'0 0.0
2017-Nov-19 16:00N 30°04' W 093°16'0 0.0
2017-Nov-19 15:30N 30°04' W 093°16'0 0.0
2017-Nov-19 15:00N 30°04' W 093°16'0 0.0
2017-Nov-19 14:30N 30°04' W 093°16'0 0.0
2017-Nov-19 14:00N 30°04' W 093°16'0 0.1
2017-Nov-19 13:30N 30°04' W 093°16'0 0.0
2017-Nov-19 13:00N 30°04' W 093°16'0 0.1
2017-Nov-19 12:30N 30°04' W 093°16'1 2.3
2017-Nov-19 12:00N 30°03' W 093°16'2 4.0
2017-Nov-19 11:30N 30°02' W 093°14'2 4.3
2017-Nov-19 11:00N 29°60' W 093°13'2 4.3
2017-Nov-19 10:30N 29°58' W 093°11'2 4.3
2017-Nov-19 10:00N 29°56' W 093°10'2 4.1
2017-Nov-19 09:30N 29°56' W 093°07'2 4.3
2017-Nov-19 09:00N 29°56' W 093°05'38 4.2
2017-Nov-19 00:00N 29°51' W 092°22'2 4.6
2017-Nov-18 23:30N 29°50' W 092°19'2 4.0
2017-Nov-18 23:00N 29°49' W 092°17'2 3.1
2017-Nov-18 22:30N 29°48' W 092°16'2 4.6
2017-Nov-18 22:00N 29°48' W 092°13'2 4.1
2017-Nov-18 21:30N 29°47' W 092°11'2 4.2
2017-Nov-18 21:00N 29°47' W 092°09'2 4.3
2017-Nov-18 20:30N 29°48' W 092°06'2 4.7
2017-Nov-18 20:00N 29°49' W 092°04'2 4.6
2017-Nov-18 19:30N 29°49' W 092°01'2 4.6
2017-Nov-18 19:00N 29°50' W 091°59'0 0.0
2017-Nov-18 03:07N 29°50' W 091°59'0 4.1
2017-Nov-18 03:00N 29°50' W 091°59'2 3.8
2017-Nov-18 02:30N 29°49' W 092°01'2 3.9
2017-Nov-18 02:00N 29°49' W 092°03'2 4.1
2017-Nov-18 01:30N 29°48' W 092°06'2 4.3
2017-Nov-18 01:00N 29°47' W 092°08'2 3.8
2017-Nov-18 00:30N 29°47' W 092°10'2 3.5
2017-Nov-18 00:00N 29°47' W 092°12'1 1.9
2017-Nov-17 23:30N 29°47' W 092°13'2 3.6
2017-Nov-17 23:00N 29°48' W 092°15'2 3.7
2017-Nov-17 22:30N 29°49' W 092°17'2 3.3
2017-Nov-17 22:00N 29°50' W 092°18'2 3.6
2017-Nov-17 21:30N 29°51' W 092°20'37 3.5
2017-Nov-17 10:45N 29°56' W 093°03'2 3.7
2017-Nov-17 10:20N 29°56' W 093°04'1 3.6
2017-Nov-17 09:59N 29°56' W 093°06'2 3.5
2017-Nov-17 09:29N 29°56' W 093°08'2 3.6
2017-Nov-17 09:00N 29°56' W 093°10'2 3.7
2017-Nov-17 08:30N 29°58' W 093°11'2 3.6
2017-Nov-17 08:00N 29°59' W 093°12'2 3.4
2017-Nov-17 07:30N 30°00' W 093°14'2 3.2
2017-Nov-17 07:00N 30°02' W 093°15'2 3.2
2017-Nov-17 06:30N 30°03' W 093°16'2 3.5
2017-Nov-17 06:00N 30°05' W 093°17'1 2.3
2017-Nov-17 05:30N 30°05' W 093°18'1 2.1
2017-Nov-17 05:00N 30°06' W 093°18'2 3.7
2017-Nov-17 04:30N 30°05' W 093°20'2 3.3
2017-Nov-17 04:00N 30°04' W 093°21'1 1.5
2017-Nov-17 03:30N 30°04' W 093°22'0 0.3
2017-Nov-17 03:00N 30°04' W 093°22'0 0.0
2017-Nov-17 02:30N 30°04' W 093°22'0 0.0
2017-Nov-17 02:00N 30°04' W 093°22'0 0.0
2017-Nov-17 01:30N 30°04' W 093°22'0 0.3
2017-Nov-17 01:00N 30°04' W 093°22'2 3.5
2017-Nov-17 00:30N 30°04' W 093°24'2 3.5
2017-Nov-17 00:00N 30°04' W 093°26'2 3.7
2017-Nov-16 23:30N 30°04' W 093°29'2 3.7
2017-Nov-16 23:00N 30°04' W 093°31'2 3.3
2017-Nov-16 22:30N 30°04' W 093°33'1 2.3
2017-Nov-16 22:00N 30°04' W 093°34'2 4.0
2017-Nov-16 21:30N 30°04' W 093°36'2 4.1
2017-Nov-16 21:00N 30°04' W 093°39'2 4.2
2017-Nov-16 20:30N 30°04' W 093°41'21 3.3
2017-Nov-16 14:02N 29°49' W 093°59'0 0.0
2017-Nov-16 13:59N 29°49' W 093°59'1 2.1
2017-Nov-16 13:30N 29°48' W 094°00'2 4.3
2017-Nov-16 13:00N 29°47' W 094°02'2 4.1
2017-Nov-16 12:30N 29°45' W 094°04'2 3.9
2017-Nov-16 12:00N 29°44' W 094°05'2 3.8
2017-Nov-16 11:30N 29°43' W 094°07'7 1.6
2017-Nov-16 07:14N 29°40' W 094°14'0 0.4
2017-Nov-16 06:54N 29°40' W 094°14'35 2.9
2017-Nov-15 18:54N 29°29' W 094°52'2 4.8
2017-Nov-15 18:27N 29°31' W 094°53'2 4.8
2017-Nov-15 18:00N 29°33' W 094°54'2 4.8
2017-Nov-15 17:30N 29°35' W 094°56'2 4.7
2017-Nov-15 17:00N 29°37' W 094°57'2 4.9
2017-Nov-15 16:30N 29°39' W 094°58'3 5.2
2017-Nov-15 16:00N 29°41' W 094°59'2 4.4
2017-Nov-15 15:30N 29°43' W 095°01'2 4.2
2017-Nov-15 15:00N 29°44' W 095°03'2 4.8
2017-Nov-15 14:29N 29°46' W 095°05'1 0.6
2017-Nov-15 12:43N 29°46' W 095°06'0 0.0
2017-Nov-15 12:30N 29°46' W 095°06'0 0.0
2017-Nov-15 11:52N 29°46' W 095°06'0 0.4
2017-Nov-15 11:27N 29°46' W 095°06'0 0.0
2017-Nov-15 10:38N 29°46' W 095°06'0 0.0
2017-Nov-15 10:12N 29°46' W 095°06'1 3.1
2017-Nov-15 09:56N 29°46' W 095°05'1 1.7
2017-Nov-15 09:30N 29°46' W 095°04'4 7.0
2017-Nov-15 08:58N 29°43' W 095°01'3 6.9
2017-Nov-15 08:30N 29°41' W 094°59'4 7.5
2017-Nov-15 08:00N 29°37' W 094°57'4 7.6
2017-Nov-15 07:30N 29°34' W 094°55'70 5.1
2017-Nov-14 17:48N 30°03' W 093°42'9 6.9
2017-Nov-14 16:34N 30°04' W 093°32'1 6.6
2017-Nov-14 16:26N 30°04' W 093°31'3 6.7
2017-Nov-14 16:00N 30°04' W 093°28'3 6.6
2017-Nov-14 15:30N 30°04' W 093°24'3 5.3
2017-Nov-14 15:00N 30°04' W 093°21'  

Dump ship's entire track history